Time;durP1;ratioP1;P1;durP2;ratioP2;P2;SDS_P1;SDS_P2;PMS_P1;PMS_P2;Temp;Humidity;BMP_temperature;BMP_pressure;BME280_temperature;BME280_humidity;BME280_pressure;Samples;Min_cycle;Max_cycle;Signal;HPM_P1;HPM_P2
2021/09/19 00:03:57;;;;;;;4.90;2.80;;;;;;;10.49;90.00;98441.52;236153;1190;22930;-78
2021/09/19 00:09:00;;;;;;;6.20;2.60;;;;;;;10.49;90.04;98440.38;235946;1194;23992;-79
2021/09/19 00:14:03;;;;;;;6.20;2.50;;;;;;;10.47;90.11;98445.17;235999;1184;24058;-79
2021/09/19 00:19:12;;;;;;;8.30;3.50;;;;;;;10.37;89.86;98447.01;235815;1198;24083;-77
2021/09/19 00:24:16;;;;;;;8.90;3.50;;;;;;;10.27;89.85;98453.52;236069;1198;24078;-78
2021/09/19 00:29:21;;;;;;;6.30;4.00;;;;;;;10.21;89.80;98448.23;236012;1198;22441;-79
2021/09/19 00:34:30;;;;;;;9.80;3.50;;;;;;;10.14;89.58;98452.05;236118;1198;24043;-78
2021/09/19 00:39:34;;;;;;;7.10;3.10;;;;;;;10.07;89.24;98462.05;236059;1190;22424;-77
2021/09/19 00:44:37;;;;;;;5.40;2.40;;;;;;;9.99;88.91;98467.42;235923;1198;22420;-76
2021/09/19 00:49:40;;;;;;;6.10;3.30;;;;;;;9.88;88.84;98459.78;235862;1190;24191;-79
2021/09/19 00:54:44;;;;;;;7.20;3.00;;;;;;;9.80;88.66;98467.61;236016;1196;22465;-79
2021/09/19 00:59:49;;;;;;;4.90;3.00;;;;;;;9.77;88.71;98472.25;236227;1197;24980;-77
2021/09/19 01:04:52;;;;;;;6.80;2.50;;;;;;;9.74;88.68;98476.52;236250;1197;22437;-78
2021/09/19 01:09:58;;;;;;;6.70;2.70;;;;;;;9.72;88.52;98480.45;236183;1183;24031;-79
2021/09/19 01:15:02;;;;;;;3.80;2.80;;;;;;;9.68;88.39;98484.41;236192;1198;25362;-79
2021/09/19 01:20:14;;;;;;;8.30;2.30;;;;;;;9.63;88.22;98488.06;236209;1198;22439;-79
2021/09/19 01:25:16;;;;;;;4.50;1.90;;;;;;;9.52;87.63;98495.49;236396;1197;22528;-76
2021/09/19 01:30:19;;;;;;;4.90;2.20;;;;;;;9.43;87.44;98495.19;235971;1190;24273;-78
2021/09/19 01:35:23;;;;;;;8.00;3.40;;;;;;;9.33;87.24;98494.60;236189;1190;24081;-78
2021/09/19 01:40:33;;;;;;;3.40;2.10;;;;;;;9.22;87.25;98493.67;235880;1193;24647;-76
2021/09/19 01:45:37;;;;;;;5.40;2.40;;;;;;;9.11;87.11;98500.38;236154;1197;22558;-76
2021/09/19 01:50:39;;;;;;;9.00;3.30;;;;;;;8.99;87.12;98505.90;236049;1197;26241;-78
2021/09/19 01:55:55;;;;;;;5.10;2.40;;;;;;;8.89;87.14;98511.36;236330;1197;25316;-79
2021/09/19 02:01:05;;;;;;;9.50;3.20;;;;;;;8.85;87.33;98517.27;236421;1197;24043;-79
2021/09/19 02:06:10;;;;;;;6.80;2.50;;;;;;;8.84;87.41;98516.42;236317;1197;24592;-78
2021/09/19 02:11:14;;;;;;;11.60;2.70;;;;;;;8.83;87.30;98519.92;236248;1189;24078;-77
2021/09/19 02:16:22;;;;;;;5.90;2.70;;;;;;;8.84;87.19;98516.17;236216;1174;24225;-78
2021/09/19 02:21:25;;;;;;;5.80;2.70;;;;;;;8.86;87.16;98512.18;236352;1190;22504;-77
2021/09/19 02:26:28;;;;;;;7.70;3.40;;;;;;;8.86;86.97;98506.25;236447;1190;23709;-77
2021/09/19 02:31:32;;;;;;;7.90;2.50;;;;;;;8.87;87.02;98504.91;236236;1198;22426;-77
2021/09/19 02:36:48;;;;;;;6.50;3.10;;;;;;;8.94;87.16;98498.41;236431;1194;25215;-76
2021/09/19 02:41:51;;;;;;;7.10;3.20;;;;;;;8.97;86.83;98498.98;236329;1193;24044;-76
2021/09/19 02:47:06;;;;;;;8.30;2.80;;;;;;;8.97;86.75;98496.52;236186;1197;25303;-79
2021/09/19 02:52:09;;;;;;;7.00;2.60;;;;;;;8.98;86.55;98503.63;236208;1197;25520;-78
2021/09/19 02:57:12;;;;;;;5.60;2.90;;;;;;;8.98;86.74;98502.55;236501;1197;24053;-79
2021/09/19 03:02:21;;;;;;;11.10;3.70;;;;;;;9.02;86.82;98503.74;236192;1197;24106;-78
2021/09/19 03:07:24;;;;;;;5.50;3.30;;;;;;;9.03;86.60;98500.63;235933;1197;24050;-78
2021/09/19 03:12:26;;;;;;;7.60;3.50;;;;;;;9.05;86.71;98496.38;236106;1190;22428;-79
2021/09/19 03:17:30;;;;;;;5.40;2.80;;;;;;;9.09;86.79;98496.92;236029;1197;24056;-77
2021/09/19 03:22:33;;;;;;;6.80;2.80;;;;;;;9.13;86.79;98499.17;236068;1197;24057;-76
2021/09/19 03:27:36;;;;;;;5.90;3.30;;;;;;;9.14;86.62;98500.88;236142;1197;24619;-78
2021/09/19 03:32:41;;;;;;;6.50;2.60;;;;;;;9.13;86.47;98502.80;236179;1193;24109;-78
2021/09/19 03:37:44;;;;;;;8.40;3.20;;;;;;;9.13;86.50;98504.79;236124;1197;24067;-77
2021/09/19 03:42:50;;;;;;;9.00;3.50;;;;;;;9.15;86.62;98504.83;236206;1190;22945;-78
2021/09/19 03:47:52;;;;;;;9.00;4.50;;;;;;;9.17;86.63;98505.29;236386;1193;24147;-78
2021/09/19 03:52:55;;;;;;;8.30;2.70;;;;;;;9.14;86.43;98502.86;235847;1197;24122;-80
2021/09/19 03:58:00;;;;;;;8.10;4.00;;;;;;;9.11;86.47;98502.09;236159;1190;22525;-79
2021/09/19 04:03:02;;;;;;;7.10;3.50;;;;;;;9.11;86.46;98507.53;236425;1190;22550;-76
2021/09/19 04:08:05;;;;;;;11.80;5.00;;;;;;;9.08;86.36;98509.08;236267;1193;25038;-79
2021/09/19 04:13:07;;;;;;;7.80;3.70;;;;;;;9.00;86.05;98505.52;236211;1193;22440;-76
2021/09/19 04:18:13;;;;;;;11.60;4.40;;;;;;;8.95;86.08;98512.95;236366;1197;24517;-79
2021/09/19 04:23:15;;;;;;;10.80;4.70;;;;;;;8.95;86.30;98516.37;236145;1190;24009;-78
2021/09/19 04:28:31;;;;;;;10.50;3.80;;;;;;;8.96;86.28;98510.16;235973;1193;26340;-78
2021/09/19 04:33:34;;;;;;;8.90;4.50;;;;;;;8.93;86.15;98512.13;236392;1192;24204;-76
2021/09/19 04:38:36;;;;;;;10.20;4.90;;;;;;;8.92;86.29;98511.48;236049;1197;25183;-77
2021/09/19 04:43:39;;;;;;;11.60;5.30;;;;;;;8.88;86.16;98517.25;236195;1196;22595;-78
2021/09/19 04:48:42;;;;;;;8.50;4.30;;;;;;;8.84;86.21;98523.21;236222;1190;24051;-77
2021/09/19 04:53:44;;;;;;;10.50;4.50;;;;;;;8.81;86.19;98531.84;236087;1190;25160;-76
2021/09/19 04:58:48;;;;;;;11.90;4.70;;;;;;;8.81;86.49;98541.77;236235;1197;25287;-76
2021/09/19 05:03:51;;;;;;;13.60;5.80;;;;;;;8.84;86.51;98546.30;236096;1197;22949;-78
2021/09/19 05:08:53;;;;;;;9.30;5.00;;;;;;;8.80;86.46;98549.91;236101;1193;22447;-78
2021/09/19 05:13:56;;;;;;;11.30;5.00;;;;;;;8.78;86.50;98550.20;236489;1197;22790;-78
2021/09/19 05:19:11;;;;;;;17.70;6.40;;;;;;;8.77;86.59;98553.52;236123;1197;24073;-77
2021/09/19 05:24:18;;;;;;;16.40;6.80;;;;;;;8.74;86.77;98554.13;236248;1198;22464;-78
2021/09/19 05:29:21;;;;;;;12.60;4.50;;;;;;;8.72;86.76;98557.62;236131;1197;22444;-78
2021/09/19 05:34:24;;;;;;;11.50;4.40;;;;;;;8.70;86.91;98556.56;236312;1197;24059;-78
2021/09/19 05:39:39;;;;;;;12.20;4.50;;;;;;;8.69;86.91;98561.23;236473;1190;22439;-76
2021/09/19 05:44:54;;;;;;;8.40;4.00;;;;;;;8.70;86.90;98566.63;236118;1198;24028;-77
2021/09/19 05:49:56;;;;;;;6.80;3.10;;;;;;;8.67;86.64;98568.88;236019;1193;24075;-78
2021/09/19 05:55:00;;;;;;;10.80;3.40;;;;;;;8.63;86.44;98573.09;236290;1197;24150;-77
2021/09/19 06:00:05;;;;;;;7.80;3.30;;;;;;;8.60;86.55;98575.99;236429;1190;24053;-77
2021/09/19 06:05:10;;;;;;;8.30;3.00;;;;;;;8.62;86.57;98572.71;236433;1197;22427;-78
2021/09/19 06:10:13;;;;;;;11.80;3.20;;;;;;;8.73;86.78;98568.63;236335;1190;24190;-77
2021/09/19 06:15:16;;;;;;;6.50;3.90;;;;;;;8.83;86.51;98567.99;236014;1183;22433;-78
2021/09/19 06:20:20;;;;;;;8.50;3.50;;;;;;;8.87;86.38;98570.41;236418;1190;22552;-76
2021/09/19 06:25:22;;;;;;;7.40;2.90;;;;;;;8.94;86.37;98569.44;236342;1197;22442;-78
2021/09/19 06:30:26;;;;;;;6.40;3.00;;;;;;;8.98;86.10;98577.46;236327;1197;22447;-77
2021/09/19 06:35:42;;;;;;;9.50;3.30;;;;;;;9.03;85.99;98577.73;236286;1197;22438;-79
2021/09/19 06:41:05;;;;;;;7.40;3.50;;;;;;;9.05;85.84;98580.98;236215;1197;25317;-78
2021/09/19 06:46:08;;;;;;;11.30;3.60;;;;;;;9.08;85.75;98579.02;236389;1192;24022;-78
2021/09/19 06:51:15;;;;;;;5.30;2.80;;;;;;;9.11;85.61;98575.67;236983;1190;24075;-79
2021/09/19 06:56:20;;;;;;;6.40;3.60;;;;;;;9.17;85.65;98574.23;238431;1195;25185;-78
2021/09/19 07:01:26;;;;;;;6.60;2.50;;;;;;;9.18;85.36;98574.91;237113;1197;22462;-78
2021/09/19 07:06:30;;;;;;;8.30;3.60;;;;;;;9.19;85.09;98580.26;237360;1197;24129;-77
2021/09/19 07:11:33;;;;;;;5.70;3.10;;;;;;;9.19;85.12;98586.08;236975;1190;22450;-78
2021/09/19 07:16:37;;;;;;;9.00;3.90;;;;;;;9.21;85.01;98593.70;237480;1197;22941;-78
2021/09/19 07:21:40;;;;;;;9.20;3.50;;;;;;;9.27;85.10;98595.70;237152;1189;24059;-77
2021/09/19 07:26:43;;;;;;;11.00;3.80;;;;;;;9.33;85.06;98605.81;236889;1197;23123;-78
2021/09/19 07:31:50;;;;;;;8.80;4.30;;;;;;;9.35;85.04;98605.36;237232;1183;22520;-78
2021/09/19 07:36:54;;;;;;;10.20;4.70;;;;;;;9.33;84.83;98607.90;237213;1192;22456;-77
2021/09/19 07:41:58;;;;;;;10.20;4.10;;;;;;;9.34;84.79;98606.08;236892;1193;22440;-79
2021/09/19 07:47:02;;;;;;;9.20;4.40;;;;;;;9.40;84.97;98607.29;236944;1190;24260;-78
2021/09/19 07:52:06;;;;;;;6.90;3.50;;;;;;;9.46;84.79;98607.34;237025;1197;22432;-77
2021/09/19 07:57:09;;;;;;;12.60;3.30;;;;;;;9.48;84.52;98607.04;237252;1189;24041;-77
2021/09/19 08:02:12;;;;;;;11.70;3.80;;;;;;;9.54;84.55;98609.80;236827;1174;22480;-76
2021/09/19 08:07:21;;;;;;;8.30;4.20;;;;;;;9.61;84.43;98610.67;237420;1193;22442;-79
2021/09/19 08:12:24;;;;;;;11.30;4.50;;;;;;;9.66;84.57;98610.56;238171;1196;22442;-79
2021/09/19 08:17:29;;;;;;;10.00;4.90;;;;;;;9.73;84.38;98614.02;237003;1197;22549;-77
2021/09/19 08:22:32;;;;;;;11.10;5.30;;;;;;;9.79;84.34;98620.30;237204;1197;24085;-78
2021/09/19 08:27:37;;;;;;;11.90;4.10;;;;;;;9.84;84.35;98616.56;237234;1197;22438;-77
2021/09/19 08:32:41;;;;;;;13.30;4.40;;;;;;;9.84;84.13;98617.69;237460;1198;22452;-79
2021/09/19 08:37:44;;;;;;;11.10;6.00;;;;;;;9.88;84.31;98619.24;237259;1198;22424;-77
2021/09/19 08:42:54;;;;;;;11.80;5.20;;;;;;;9.94;84.02;98624.20;237809;1198;22460;-79
2021/09/19 08:47:57;;;;;;;11.50;5.70;;;;;;;9.94;83.82;98622.05;237695;1198;22446;-78
2021/09/19 08:53:01;;;;;;;13.50;6.00;;;;;;;9.88;83.52;98621.11;237108;1198;22525;-77
2021/09/19 08:58:04;;;;;;;10.50;5.00;;;;;;;9.99;83.77;98616.54;236518;1194;23993;-78
2021/09/19 09:03:11;;;;;;;11.80;5.60;;;;;;;10.21;83.57;98619.77;236536;1197;24058;-79
2021/09/19 09:08:14;;;;;;;9.50;5.00;;;;;;;10.37;83.46;98621.96;237073;1198;24055;-78
2021/09/19 09:13:28;;;;;;;13.10;5.50;;;;;;;10.42;82.93;98624.85;236798;1198;24082;-77
2021/09/19 09:18:45;;;;;;;11.70;5.00;;;;;;;10.48;83.04;98621.77;237107;1198;24143;-80
2021/09/19 09:23:51;;;;;;;9.40;5.00;;;;;;;10.54;82.86;98626.98;237099;1198;24503;-77
2021/09/19 09:28:58;;;;;;;12.20;5.30;;;;;;;10.69;82.67;98634.40;236991;1193;25152;-78
2021/09/19 09:34:15;;;;;;;12.60;5.80;;;;;;;11.04;82.67;98632.77;236959;1192;24023;-77
2021/09/19 09:39:54;;;;;;;12.40;5.10;;;;;;;11.38;82.26;98627.17;236800;1198;22714;-77
2021/09/19 09:44:59;;;;;;;16.10;5.60;;;;;;;11.65;81.45;98632.83;236070;1198;26546;-78
2021/09/19 09:50:05;;;;;;;10.20;5.10;;;;;;;12.05;81.63;98628.02;236737;1190;22476;-78
2021/09/19 09:55:13;;;;;;;10.60;4.70;;;;;;;12.43;80.93;98624.64;236754;1198;24025;-77
2021/09/19 10:00:30;;;;;;;6.70;4.00;;;;;;;12.75;79.88;98619.83;236617;1198;22515;-79
2021/09/19 10:05:42;;;;;;;7.10;3.40;;;;;;;13.03;79.15;98626.38;236602;1198;24047;-78
2021/09/19 10:10:45;;;;;;;4.90;2.90;;;;;;;13.29;78.48;98628.52;237686;1198;22663;-80
2021/09/19 10:15:50;;;;;;;7.90;2.90;;;;;;;13.49;77.92;98622.27;237133;1198;22454;-79
2021/09/19 10:20:54;;;;;;;4.60;2.80;;;;;;;13.67;76.95;98626.86;237243;1198;24080;-77
2021/09/19 10:26:07;;;;;;;3.20;2.10;;;;;;;13.61;75.69;98632.11;236996;1193;26166;-76
2021/09/19 10:31:11;;;;;;;7.60;2.90;;;;;;;13.38;74.94;98639.45;236564;1192;23745;-77
2021/09/19 10:36:26;;;;;;;4.80;2.90;;;;;;;13.12;74.68;98636.86;236948;1197;22463;-78
2021/09/19 10:41:29;;;;;;;3.60;2.00;;;;;;;12.93;74.89;98640.46;237214;1197;24064;-77
2021/09/19 10:46:35;;;;;;;4.60;2.90;;;;;;;12.88;74.98;98639.92;237321;1197;22463;-78
2021/09/19 10:52:01;;;;;;;3.70;2.30;;;;;;;13.00;74.86;98640.06;236990;1197;24088;-77
2021/09/19 10:57:19;;;;;;;1.90;1.60;;;;;;;13.02;74.30;98640.83;236456;1196;24037;-78
2021/09/19 11:02:28;;;;;;;3.20;1.80;;;;;;;13.00;74.21;98642.49;236980;1197;22441;-77
2021/09/19 11:07:44;;;;;;;4.40;2.60;;;;;;;13.21;74.13;98646.70;236196;1192;24072;-78
2021/09/19 11:12:50;;;;;;;2.10;1.70;;;;;;;13.48;73.56;98641.34;236291;1197;25095;-78
2021/09/19 11:18:02;;;;;;;3.40;2.20;;;;;;;13.81;73.56;98638.45;236569;1190;24069;-78
2021/09/19 11:23:27;;;;;;;3.60;1.80;;;;;;;13.95;72.21;98636.25;237065;1197;24162;-78
2021/09/19 11:28:36;;;;;;;5.10;2.20;;;;;;;13.85;72.01;98632.23;236677;1198;22451;-78
2021/09/19 11:33:53;;;;;;;3.80;2.30;;;;;;;13.86;72.03;98627.58;236985;1197;22546;-78
2021/09/19 11:39:05;;;;;;;2.70;1.70;;;;;;;14.09;72.14;98629.11;236649;1195;24137;-79
2021/09/19 11:44:11;;;;;;;3.10;2.10;;;;;;;14.27;71.20;98624.77;236530;1197;22483;-78
2021/09/19 11:49:16;;;;;;;3.80;1.90;;;;;;;14.53;71.36;98624.92;237085;1197;22480;-78
2021/09/19 11:54:19;;;;;;;3.70;2.30;;;;;;;14.61;70.50;98626.70;236819;1192;24078;-78
2021/09/19 11:59:22;;;;;;;3.30;2.40;;;;;;;14.53;69.82;98628.15;237237;1197;24034;-78
2021/09/19 12:04:26;;;;;;;2.10;1.70;;;;;;;14.46;69.67;98629.37;236636;1197;24083;-79
2021/09/19 12:09:48;;;;;;;2.60;2.00;;;;;;;14.55;70.04;98624.01;236664;1196;22426;-78
2021/09/19 12:15:26;;;;;;;2.60;1.80;;;;;;;14.57;69.50;98620.77;237290;1197;22501;-79
2021/09/19 12:20:30;;;;;;;3.90;1.90;;;;;;;14.47;69.24;98620.20;237283;1197;24165;-78
2021/09/19 12:25:44;;;;;;;2.70;1.70;;;;;;;14.27;68.92;98618.77;237132;1197;24148;-79
2021/09/19 12:30:47;;;;;;;1.90;1.60;;;;;;;13.96;68.81;98616.52;236534;1190;24422;-77
2021/09/19 12:35:50;;;;;;;3.30;1.60;;;;;;;13.73;69.09;98614.59;237286;1192;22910;-77
2021/09/19 12:41:04;;;;;;;3.60;1.50;;;;;;;13.58;69.43;98612.54;237438;1194;25247;-77
2021/09/19 12:46:11;;;;;;;2.70;2.20;;;;;;;13.51;69.78;98612.59;237366;1197;24088;-78
2021/09/19 12:51:16;;;;;;;2.50;1.70;;;;;;;13.50;69.76;98611.35;236893;1192;24191;-78
2021/09/19 12:56:19;;;;;;;2.80;2.20;;;;;;;13.45;69.58;98610.79;237308;1197;22528;-79
2021/09/19 13:01:21;;;;;;;2.10;1.40;;;;;;;13.43;69.71;98612.14;237289;1192;25341;-76
2021/09/19 13:06:25;;;;;;;3.40;1.90;;;;;;;13.49;70.03;98613.36;237553;1197;22592;-77
2021/09/19 13:11:27;;;;;;;1.80;1.50;;;;;;;13.41;69.74;98617.09;237533;1189;24513;-78
2021/09/19 13:16:30;;;;;;;5.90;1.90;;;;;;;13.22;69.90;98617.37;236659;1197;22433;-78
2021/09/19 13:21:35;;;;;;;2.30;1.40;;;;;;;13.05;69.91;98614.56;237191;1190;24127;-78
2021/09/19 13:26:39;;;;;;;5.10;1.70;;;;;;;12.98;70.04;98621.08;236969;1197;22448;-78
2021/09/19 13:31:43;;;;;;;2.40;1.30;;;;;;;13.00;70.32;98617.92;237263;1197;24161;-78
2021/09/19 13:36:46;;;;;;;2.00;1.40;;;;;;;13.03;70.48;98614.55;237059;1191;24038;-77
2021/09/19 13:41:48;;;;;;;1.90;1.40;;;;;;;12.97;70.26;98610.08;237446;1189;22515;-77
2021/09/19 13:46:51;;;;;;;3.20;2.00;;;;;;;12.85;70.21;98613.02;237333;1197;24085;-78
2021/09/19 13:51:57;;;;;;;2.50;1.80;;;;;;;12.83;70.74;98608.33;237035;1197;22464;-76
2021/09/19 13:57:01;;;;;;;2.60;1.90;;;;;;;12.87;70.84;98613.29;236783;1197;22558;-78
2021/09/19 14:02:04;;;;;;;4.20;1.90;;;;;;;12.91;70.70;98609.86;236972;1197;22445;-78
2021/09/19 14:07:14;;;;;;;3.60;2.30;;;;;;;12.96;70.90;98619.09;237360;1197;22451;-78
2021/09/19 14:12:17;;;;;;;2.70;1.40;;;;;;;12.97;70.95;98626.02;236751;1197;22423;-78
2021/09/19 14:17:20;;;;;;;2.40;1.50;;;;;;;12.98;71.03;98625.51;237171;1197;24094;-77
2021/09/19 14:22:23;;;;;;;2.20;1.40;;;;;;;13.00;71.02;98624.26;236682;1198;22859;-76
2021/09/19 14:27:25;;;;;;;1.60;1.50;;;;;;;12.99;71.01;98631.23;237308;1197;25173;-78
2021/09/19 14:32:28;;;;;;;2.50;1.50;;;;;;;12.96;71.14;98633.11;236819;1197;24138;-78
2021/09/19 14:37:32;;;;;;;2.60;2.10;;;;;;;12.91;70.96;98631.10;236107;1197;22543;-77
2021/09/19 14:42:36;;;;;;;2.90;1.90;;;;;;;12.83;71.15;98631.83;236361;1197;23986;-77
2021/09/19 14:47:39;;;;;;;2.90;1.80;;;;;;;12.70;71.16;98629.09;236287;1197;25214;-77
2021/09/19 14:52:42;;;;;;;2.60;1.80;;;;;;;12.59;71.34;98625.79;236249;1197;22962;-76
2021/09/19 14:57:58;;;;;;;3.00;1.90;;;;;;;12.49;71.53;98629.79;236453;1197;24184;-77
2021/09/19 15:03:14;;;;;;;3.80;2.00;;;;;;;12.41;71.68;98628.52;236320;1192;24599;-78
2021/09/19 15:08:30;;;;;;;3.60;2.10;;;;;;;12.37;71.87;98629.73;236024;1193;24067;-78
2021/09/19 15:13:46;;;;;;;3.80;2.50;;;;;;;12.32;72.08;98624.92;236221;1183;24051;-78
2021/09/19 15:18:50;;;;;;;9.50;2.60;;;;;;;12.26;72.39;98627.23;236197;1197;22443;-78
2021/09/19 15:23:53;;;;;;;5.00;1.70;;;;;;;12.23;72.74;98628.16;235914;1196;22456;-76
2021/09/19 15:28:56;;;;;;;2.20;1.80;;;;;;;12.27;72.83;98629.69;236167;1197;25172;-77
2021/09/19 15:33:59;;;;;;;3.60;2.40;;;;;;;12.28;73.11;98622.89;236233;1197;23979;-77
2021/09/19 15:39:03;;;;;;;4.40;2.80;;;;;;;12.31;73.14;98624.27;236205;1193;24183;-77
2021/09/19 15:44:09;;;;;;;7.30;3.90;;;;;;;12.30;73.01;98622.30;236280;1197;22461;-78
2021/09/19 15:49:14;;;;;;;4.90;2.20;;;;;;;12.31;72.96;98623.26;236254;1197;22549;-78
2021/09/19 15:54:17;;;;;;;5.40;1.60;;;;;;;12.26;72.60;98618.00;236640;1197;22423;-78
2021/09/19 15:59:20;;;;;;;6.40;2.10;;;;;;;12.14;72.42;98613.60;236443;1190;22447;-78
2021/09/19 16:04:23;;;;;;;66.60;31.00;;;;;;;11.98;72.44;98606.73;236618;1190;22444;-79
2021/09/19 16:09:26;;;;;;;11.10;5.40;;;;;;;11.90;72.88;98603.71;236346;1174;24790;-76
2021/09/19 16:14:30;;;;;;;6.20;4.00;;;;;;;11.85;73.26;98601.68;236244;1197;22403;-76
2021/09/19 16:19:33;;;;;;;21.70;11.40;;;;;;;11.73;73.25;98592.05;236664;1197;23985;-79
2021/09/19 16:24:35;;;;;;;8.60;5.40;;;;;;;11.61;73.45;98595.39;236266;1197;24170;-75
2021/09/19 16:29:38;;;;;;;59.30;22.70;;;;;;;11.50;73.57;98595.41;236393;1184;24162;-78
2021/09/19 16:34:40;;;;;;;14.90;9.30;;;;;;;11.42;74.32;98598.92;236454;1197;22451;-76
2021/09/19 16:39:47;;;;;;;11.80;5.80;;;;;;;11.37;74.60;98604.55;236218;1197;25306;-78
2021/09/19 16:44:53;;;;;;;6.00;3.80;;;;;;;11.25;75.00;98607.58;236006;1198;26143;-76
2021/09/19 16:49:57;;;;;;;6.30;3.80;;;;;;;11.16;75.18;98608.52;236605;1197;24050;-78
2021/09/19 16:55:02;;;;;;;6.40;2.90;;;;;;;11.05;75.35;98606.47;236354;1194;22529;-78
2021/09/19 17:00:09;;;;;;;8.10;4.50;;;;;;;10.94;75.50;98602.48;236062;1197;22449;-78
2021/09/19 17:05:13;;;;;;;11.30;3.90;;;;;;;10.88;75.72;98604.79;236224;1197;22437;-76
2021/09/19 17:10:16;;;;;;;10.20;3.60;;;;;;;10.88;75.95;98605.69;236342;1197;22562;-78
2021/09/19 17:15:21;;;;;;;9.50;3.70;;;;;;;10.91;76.46;98610.52;236264;1197;22452;-79
2021/09/19 17:20:23;;;;;;;10.60;5.40;;;;;;;10.91;76.85;98611.54;236167;1197;24449;-76
2021/09/19 17:25:27;;;;;;;8.90;4.60;;;;;;;10.90;76.89;98617.55;236639;1197;22550;-77
2021/09/19 17:30:30;;;;;;;11.40;5.50;;;;;;;10.86;76.89;98622.99;236318;1197;22957;-78
2021/09/19 17:35:34;;;;;;;8.50;4.80;;;;;;;10.88;77.10;98625.73;236534;1190;24621;-77
2021/09/19 17:40:37;;;;;;;13.40;5.90;;;;;;;10.88;77.14;98628.63;236341;1190;23965;-78
2021/09/19 17:45:39;;;;;;;11.80;5.80;;;;;;;10.86;77.15;98626.11;236032;1197;22525;-75
2021/09/19 17:50:45;;;;;;;7.90;5.20;;;;;;;10.86;77.22;98634.08;236176;1197;25212;-75
2021/09/19 17:55:48;;;;;;;12.00;5.40;;;;;;;10.85;77.27;98640.05;236472;1196;23964;-76
2021/09/19 18:00:55;;;;;;;6.80;3.40;;;;;;;10.85;77.45;98642.51;236339;1190;24066;-74
2021/09/19 18:05:58;;;;;;;6.00;3.10;;;;;;;10.84;77.63;98639.95;236250;1197;24185;-78
2021/09/19 18:11:02;;;;;;;6.40;3.40;;;;;;;10.80;77.80;98638.26;237371;1197;24069;-77
2021/09/19 18:16:06;;;;;;;6.20;4.10;;;;;;;10.80;77.98;98643.45;236094;1197;24162;-76
2021/09/19 18:21:09;;;;;;;5.80;3.50;;;;;;;10.83;78.27;98640.79;236147;1197;25261;-76
2021/09/19 18:26:12;;;;;;;10.40;4.80;;;;;;;10.77;78.09;98638.29;236270;1197;22469;-76
2021/09/19 18:31:14;;;;;;;11.50;5.40;;;;;;;10.76;78.68;98634.98;236358;1197;25191;-77
2021/09/19 18:36:19;;;;;;;13.00;5.90;;;;;;;10.76;78.78;98639.00;236287;1190;22596;-76
2021/09/19 18:41:22;;;;;;;16.40;6.90;;;;;;;10.76;78.98;98637.50;236475;1193;24025;-76
2021/09/19 18:46:26;;;;;;;13.70;6.60;;;;;;;10.79;79.25;98640.09;236404;1197;22391;-77
2021/09/19 18:51:28;;;;;;;10.70;6.00;;;;;;;10.78;79.44;98643.95;236051;1190;22440;-77
2021/09/19 18:56:31;;;;;;;11.70;5.40;;;;;;;10.74;79.55;98646.65;236293;1197;22521;-77
2021/09/19 19:01:37;;;;;;;6.90;4.70;;;;;;;10.72;79.58;98647.05;236489;1197;24081;-75
2021/09/19 19:06:40;;;;;;;6.10;3.30;;;;;;;10.73;79.45;98643.45;236454;1198;22433;-78
2021/09/19 19:11:43;;;;;;;6.90;4.00;;;;;;;10.72;79.50;98644.91;236278;1197;26222;-77
2021/09/19 19:16:47;;;;;;;4.70;3.60;;;;;;;10.74;79.57;98646.48;236238;1197;22411;-75
2021/09/19 19:21:50;;;;;;;5.20;2.60;;;;;;;10.75;79.28;98649.46;236224;1190;22450;-78
2021/09/19 19:26:54;;;;;;;6.00;3.10;;;;;;;10.77;79.44;98645.91;236309;1184;24126;-77
2021/09/19 19:31:58;;;;;;;7.80;4.20;;;;;;;10.74;79.38;98647.46;236228;1190;24655;-77
2021/09/19 19:37:02;;;;;;;9.10;4.00;;;;;;;10.69;79.42;98650.81;236093;1197;22441;-77
2021/09/19 19:42:06;;;;;;;8.90;4.40;;;;;;;10.69;79.75;98651.13;236433;1197;24852;-77
2021/09/19 19:47:09;;;;;;;5.60;3.30;;;;;;;10.72;79.81;98655.79;236463;1197;24155;-77
2021/09/19 19:52:12;;;;;;;6.20;3.50;;;;;;;10.71;79.76;98653.94;236378;1197;24634;-77
2021/09/19 19:57:17;;;;;;;9.90;4.00;;;;;;;10.67;79.77;98651.37;236288;1197;24098;-77
2021/09/19 20:02:19;;;;;;;7.20;3.90;;;;;;;10.67;79.83;98651.16;236699;1190;25281;-78
2021/09/19 20:07:22;;;;;;;7.00;3.70;;;;;;;10.66;80.18;98653.95;236084;1197;24075;-76
2021/09/19 20:12:26;;;;;;;5.40;3.70;;;;;;;10.66;80.25;98654.38;236212;1197;24037;-75
2021/09/19 20:17:29;;;;;;;7.60;3.80;;;;;;;10.69;80.48;98653.10;236307;1198;24049;-77
2021/09/19 20:22:33;;;;;;;6.30;4.40;;;;;;;10.72;80.44;98656.98;236287;1197;23982;-79
2021/09/19 20:27:44;;;;;;;8.30;4.50;;;;;;;10.74;80.45;98657.30;236308;1197;22569;-76
2021/09/19 20:33:02;;;;;;;7.40;3.60;;;;;;;10.78;80.59;98659.12;236621;1197;22648;-77
2021/09/19 20:38:05;;;;;;;4.00;3.20;;;;;;;10.81;80.47;98662.04;236936;1197;24028;-77
2021/09/19 20:43:07;;;;;;;6.80;4.00;;;;;;;10.81;80.47;98662.98;236232;1194;25254;-77
2021/09/19 20:48:10;;;;;;;5.70;3.20;;;;;;;10.83;80.54;98669.14;236520;1197;24050;-77
2021/09/19 20:53:14;;;;;;;10.60;3.80;;;;;;;10.86;80.46;98667.75;237004;1197;22559;-77
2021/09/19 20:58:29;;;;;;;4.40;2.70;;;;;;;10.85;80.42;98668.02;236422;1193;22520;-76
2021/09/19 21:03:53;;;;;;;4.60;2.60;;;;;;;10.83;80.52;98666.56;236704;1197;24098;-77
2021/09/19 21:08:58;;;;;;;7.90;3.30;;;;;;;10.82;80.34;98665.45;236580;1197;22442;-78
2021/09/19 21:14:07;;;;;;;5.20;2.50;;;;;;;10.85;80.50;98665.08;236705;1197;24168;-77
2021/09/19 21:19:14;;;;;;;5.70;3.20;;;;;;;10.87;80.70;98666.92;236480;1197;25052;-77
2021/09/19 21:24:16;;;;;;;7.80;3.50;;;;;;;10.85;80.64;98665.27;236323;1197;25035;-77
2021/09/19 21:29:19;;;;;;;4.90;3.20;;;;;;;10.84;80.74;98668.64;236165;1190;22444;-77
2021/09/19 21:34:27;;;;;;;5.80;3.40;;;;;;;10.84;80.75;98669.89;236137;1193;25184;-76
2021/09/19 21:39:34;;;;;;;5.90;3.30;;;;;;;10.87;80.84;98670.19;236077;1197;22499;-77
2021/09/19 21:44:37;;;;;;;3.50;2.60;;;;;;;10.87;81.08;98666.45;236366;1190;24041;-76
2021/09/19 21:49:40;;;;;;;5.00;3.10;;;;;;;10.82;80.91;98662.88;236337;1197;24072;-77
2021/09/19 21:54:43;;;;;;;12.20;4.00;;;;;;;10.80;81.08;98667.67;236205;1197;22579;-77
2021/09/19 21:59:45;;;;;;;6.80;3.30;;;;;;;10.77;80.96;98672.10;236127;1193;22577;-75
2021/09/19 22:04:48;;;;;;;6.10;3.20;;;;;;;10.74;81.21;98677.02;235889;1198;22478;-75
2021/09/19 22:09:58;;;;;;;6.20;3.20;;;;;;;10.75;81.50;98670.42;236364;1190;22578;-76
2021/09/19 22:15:06;;;;;;;7.60;3.40;;;;;;;10.71;81.48;98670.48;236083;1183;22525;-78
2021/09/19 22:20:14;;;;;;;4.30;2.60;;;;;;;10.67;81.33;98678.42;236110;1197;25168;-75
2021/09/19 22:25:17;;;;;;;4.80;3.20;;;;;;;10.63;81.39;98680.19;236287;1197;22457;-77
2021/09/19 22:30:20;;;;;;;5.40;3.20;;;;;;;10.60;81.68;98683.99;236039;1197;22562;-75
2021/09/19 22:35:22;;;;;;;5.80;3.40;;;;;;;10.61;82.08;98685.11;236086;1197;25260;-76
2021/09/19 22:40:25;;;;;;;8.80;3.90;;;;;;;10.61;82.13;98692.93;236127;1197;22436;-75
2021/09/19 22:45:29;;;;;;;6.40;3.40;;;;;;;10.57;82.04;98694.01;236251;1197;24046;-74
2021/09/19 22:50:32;;;;;;;5.10;3.30;;;;;;;10.57;82.24;98692.30;236125;1197;22451;-77
2021/09/19 22:55:35;;;;;;;5.20;2.90;;;;;;;10.58;82.20;98690.88;236323;1197;25272;-77
2021/09/19 23:00:38;;;;;;;8.10;3.50;;;;;;;10.52;81.89;98692.70;236124;1194;24420;-77
2021/09/19 23:05:41;;;;;;;5.80;3.50;;;;;;;10.44;82.00;98688.56;236267;1197;25181;-76
2021/09/19 23:10:44;;;;;;;6.20;2.80;;;;;;;10.41;82.06;98686.55;236150;1197;23040;-76
2021/09/19 23:15:48;;;;;;;3.40;2.20;;;;;;;10.40;82.17;98684.33;235967;1197;24506;-75
2021/09/19 23:20:50;;;;;;;7.70;4.00;;;;;;;10.35;81.94;98686.64;236075;1197;24107;-75
2021/09/19 23:25:53;;;;;;;6.80;3.40;;;;;;;10.34;82.01;98689.01;235957;1193;22579;-77
2021/09/19 23:30:56;;;;;;;5.90;2.90;;;;;;;10.38;82.42;98684.73;235936;1197;26559;-75
2021/09/19 23:36:00;;;;;;;4.90;2.50;;;;;;;10.36;82.02;98684.86;236174;1197;24057;-76
2021/09/19 23:41:03;;;;;;;7.80;2.70;;;;;;;10.33;82.04;98688.63;236095;1190;22459;-76
2021/09/19 23:46:06;;;;;;;3.50;2.40;;;;;;;10.36;82.22;98690.33;235861;1197;24094;-77